Flight Track Log - Related Links

Times and Time Zones

All times are in EDT time to prevent confusion due to time zone crossing. See the EJA951 flight status page for this flight to view local times or setup timezone preferences in your user account.

Time Position Orientation Groundspeed Altitude Reporting Facility
EDT Latitude Longitude Course Direction KTS MPH feet Rate Location/Type
Tue 05:24:05 PM 30.1592 -97.7781 327° Northwest 275 316 5,000  Level Houston Center
Tue 05:25:07 PM 30.2369 -97.7869 354° North 275 316 7,700 2,661 Climbing Houston Center
Tue 05:26:09 PM 30.3217 -97.8022 351° North 295 339 10,500 2,661 Climbing Houston Center
Tue 05:27:11 PM 30.4103 -97.8381 341° North 334 384 13,200 2,661 Climbing Houston Center
Tue 05:28:00 PM 30.7216 -97.7871 327° Northwest  Level FlightAware Approximate
Tue 05:28:13 PM 30.4925 -97.8686 342° North 311 358 16,000  Level Houston Center
Tue 05:29:00 PM 30.8120 -97.8566 327° Northwest  Level FlightAware Approximate
Tue 05:29:15 PM 30.5817 -97.9047 341° North 333 383 17,700  Level Houston Center
Tue 05:30:16 PM 30.6956 -97.9206 353° North 348 400 20,400 2,439 Climbing Houston Center
Tue 05:31:18 PM 30.7950 -97.9328 354° North 354 407 22,700 1,742 Climbing Houston Center
Tue 05:32:20 PM 30.9000 -97.9358 359° North 369 425 24,000 1,210 Climbing Houston Center
Tue 05:33:22 PM 31.0111 -97.9108 11° North 406 467 25,200 1,597 Climbing Houston Center
Tue 05:34:24 PM 31.1222 -97.8725 16° North 410 472 27,300 1,984 Climbing Houston Center
Tue 05:35:26 PM 31.2308 -97.8319 18° North 405 466 29,300 1,742 Climbing Houston Center
Tue 05:36:28 PM 31.3428 -97.7964 15° North 409 471 30,900 773 Climbing Houston Center
Tue 05:37:38 PM 31.4883 -97.7714 North 432 497 31,000 32 Climbing Fort Worth Center
Tue 05:39:34 PM 31.7375 -97.7294 North 489 563 31,000  Level Houston Center
Tue 05:40:36 PM 31.8969 -97.7456 355° North 486 559 31,000  Level Houston Center
Tue 05:41:38 PM 32.0353 -97.7467 360° North 480 552 31,000  Level Fort Worth Center
Tue 05:42:38 PM 32.1711 -97.7225 North 480 552 31,000  Level Fort Worth Center
Tue 05:43:38 PM 32.3028 -97.6861 13° North 480 552 31,000  Level Fort Worth Center
Tue 05:44:38 PM 32.4364 -97.6522 12° North 485 558 31,000  Level Fort Worth Center
Tue 05:45:38 PM 32.5703 -97.6181 12° North 485 558 31,000  Level Fort Worth Center
Tue 05:46:38 PM 32.7039 -97.5814 13° North 485 558 31,000  Level Fort Worth Center
Tue 05:47:38 PM 32.8375 -97.5469 12° North 485 558 31,000  Level Fort Worth Center
Tue 05:48:38 PM 32.9586 -97.5125 13° North 485 558 31,000  Level Fort Worth Center
Tue 05:49:38 PM 33.0942 -97.4778 12° North 485 558 31,000  Level Fort Worth Center
Tue 05:50:38 PM 33.2278 -97.4408 13° North 490 564 31,000  Level Fort Worth Center
Tue 05:51:38 PM 33.3656 -97.4011 14° North 490 564 31,000  Level Fort Worth Center
Tue 05:52:38 PM 33.5075 -97.3611 13° North 502 578 31,000 -600 Level Fort Worth Center
Tue 05:53:38 PM 33.6517 -97.3461 North 512 589 29,800 -1,950 Descending Fort Worth Center
Tue 05:54:38 PM 33.7997 -97.3686 353° North 518 596 27,100 -2,678 Descending Fort Worth Center
Tue 05:55:39 PM 33.9417 -97.3908 353° North 518 596 24,400 -1,550 Descending Fort Worth Center
Tue 05:56:38 PM 34.0772 -97.4136 352° North 508 585 24,000 -637 Descending Fort Worth Center
Tue 05:58:00 PM 34.2176 -97.4543 354° North  Level FlightAware Approximate
Tue 05:58:38 PM 34.3547 -97.4564 354° North 481 554 22,500  Level Fort Worth Center
Tue 05:59:38 PM 34.4781 -97.4764 352° North 462 532 19,100 -3,200 Descending Fort Worth Center
Tue 06:00:38 PM 34.5947 -97.4942 353° North 444 511 16,100 -3,107 Descending Fort Worth Center
Tue 06:01:30 PM 34.6908 -97.5119 351° North 426 490 13,300 -2,550 Descending Fort Worth Center
Tue 06:02:38 PM 34.8158 -97.5375 350° North 403 464 11,000 -1,078 Descending Fort Worth Center
Tue 06:03:38 PM 34.9158 -97.5806 341° North 379 436 11,000  Level Fort Worth Center
Tue 06:04:38 PM 35.0222 -97.6139 346° North 379 436 11,000 -450 Level Fort Worth Center
Tue 06:05:38 PM 35.1244 -97.6419 347° North 378 435 10,100 -1,450 Descending Fort Worth Center
Tue 06:06:38 PM 35.2078 -97.6678 346° North 343 395 8,100 -1,537 Descending Fort Worth Center
Tue 06:07:39 PM 35.2911 -97.6858 350° North 313 360 7,000 -1,250 Descending Fort Worth Center
Tue 06:08:38 PM 35.3558 -97.6961 353° North 298 343 5,600 -1,613 Descending Fort Worth Center
Tue 06:09:38 PM 35.4372 -97.7039 356° North 284 327 3,800 -1,550 Descending Fort Worth Center
Tue 06:10:38 PM 35.4497 -97.6506 74° East 164 189 2,500 -1,150 Descending Fort Worth Center
Tue 06:11:38 PM 35.4122 -97.6275 153° Southeast 71 82 1,500 -600 Descending Fort Worth Center
Tue 06:12:38 PM 35.4103 -97.5994 95° East 77 89 1,300 11,250 Descending Fort Worth Center
Tue 06:13:38 PM 35.4061 -97.5739 101° East 77 89 24,000 11,350 Climbing Fort Worth Center
Tue 06:14:38 PM 35.4000 -97.5486 107° East 77 89 24,000  Level Fort Worth Center
Tue 06:15:38 PM 35.3958 -97.5231 101° East 77 89 24,000  Level Fort Worth Center
Tue 06:17:00 PM 35.3931 -97.6008 126° Southeast  Level Estimated

Login

Don't have an account? Register now (free) for customized features, flight alerts, and more!